KCNK/CNK METAR and TAF weather

Enter ICAO airport designator
Station Type Date Time Source
KCNK METAR 2020/10/20 15:55 UTC NOAA

KCNK 201555Z AUTO 16005KT 10SM OVC009 07/04 A3004 RMK AO2 SLP177 T00720039


Station Type Date Time Source
KCNK Decoded METAR 2020/10/20 15:55 UTC NOAA

Concordia, Blosser Municipal Airport, KS, United States (KCNK) 39-33-05N 097-39-02W 447M
Oct 20, 2020 - 11:55 AM EDT / 2020.10.20 1555 UTC
Wind: from the SSE (160 degrees) at 6 MPH (5 KT):0
Visibility: 10 mile(s):0
Sky conditions: overcast
Temperature: 45.0 F (7.2 C)
Dew Point: 39.0 F (3.9 C)
Relative Humidity: 79%
Pressure (altimeter): 30.04 in. Hg (1017 hPa)
ob: KCNK 201555Z AUTO 16005KT 10SM OVC009 07/04 A3004 RMK AO2 SLP177 T00720039
cycle: 16

Station Type Date Time Source
KCNK TAF UTC NOAA

Error!

Example: see airport list